Russellville, Alabama
Current Conditions -  °F | °C
As of 9:56 AM on Friday 21 Nov 2014 (Local Time) from K1M4 Reporting Station
Clear Clear  
Wind Chill: 53°   Ceiling: Unl
Heat Index: 53°   Visibility: 10mi
Dew Point: 30°   Wind: 7mph
Humidity: 42%   Direction: 70°ENE
Pressure: 30.41"   Gusts: NA
Location:  34.51°N, 87.73°W
Report Text: K1M4 211556Z AUTO 07006KT 10SM CLR 12/M01 A3041 RMK AO2 T01161011 SLP306
Loading
Personal Weather Stations






























Interactive Weather Map New forecast layout! Learn more

10-Day Weather Forecast

Advertisements
Track Severe Weather on mobile